sensor_id;sensor_type;location;lat;lon;timestamp;P1;P2;P0
76238;PMS7003;65043;48.392;-4.472;2023-05-10T00:00:56;7.75;3.00;2.00
76238;PMS7003;65043;48.392;-4.472;2023-05-10T00:03:22;6.50;4.00;2.00
76238;PMS7003;65043;48.392;-4.472;2023-05-10T00:05:47;8.25;4.75;2.00
76238;PMS7003;65043;48.392;-4.472;2023-05-10T00:08:13;6.75;3.50;0.00
76238;PMS7003;65043;48.392;-4.472;2023-05-10T00:10:38;6.50;4.50;1.25
76238;PMS7003;65043;48.392;-4.472;2023-05-10T00:13:03;9.75;3.75;1.00
76238;PMS7003;65043;48.392;-4.472;2023-05-10T00:15:29;9.25;4.50;1.75
76238;PMS7003;65043;48.392;-4.472;2023-05-10T00:17:55;8.50;5.75;2.50
76238;PMS7003;65043;48.392;-4.472;2023-05-10T00:20:21;8.00;5.00;2.00
76238;PMS7003;65043;48.392;-4.472;2023-05-10T00:22:46;6.25;6.25;2.00
76238;PMS7003;65043;48.392;-4.472;2023-05-10T00:25:12;7.00;3.00;1.00
76238;PMS7003;65043;48.392;-4.472;2023-05-10T00:27:37;8.00;3.50;1.00
76238;PMS7003;65043;48.392;-4.472;2023-05-10T00:30:03;10.00;4.75;2.25
76238;PMS7003;65043;48.392;-4.472;2023-05-10T00:32:29;1.00;1.00;0.00
76238;PMS7003;65043;48.392;-4.472;2023-05-10T00:34:54;8.50;4.00;2.00
76238;PMS7003;65043;48.392;-4.472;2023-05-10T00:37:20;6.50;4.00;1.75
76238;PMS7003;65043;48.392;-4.472;2023-05-10T00:39:45;4.25;3.75;2.00
76238;PMS7003;65043;48.392;-4.472;2023-05-10T00:42:10;4.25;3.25;1.25
76238;PMS7003;65043;48.392;-4.472;2023-05-10T00:44:36;9.75;3.75;2.00
76238;PMS7003;65043;48.392;-4.472;2023-05-10T00:47:02;5.00;3.00;1.25
76238;PMS7003;65043;48.392;-4.472;2023-05-10T00:49:27;8.25;3.50;1.75
76238;PMS7003;65043;48.392;-4.472;2023-05-10T00:51:53;12.50;7.75;2.50
76238;PMS7003;65043;48.392;-4.472;2023-05-10T00:54:19;9.75;5.00;2.00
76238;PMS7003;65043;48.392;-4.472;2023-05-10T00:56:45;5.00;2.00;1.00
76238;PMS7003;65043;48.392;-4.472;2023-05-10T00:59:14;6.25;4.50;2.00
76238;PMS7003;65043;48.392;-4.472;2023-05-10T01:01:43;4.50;4.00;2.00
76238;PMS7003;65043;48.392;-4.472;2023-05-10T01:04:10;5.75;3.75;1.75
76238;PMS7003;65043;48.392;-4.472;2023-05-10T01:06:37;13.25;6.25;2.75
76238;PMS7003;65043;48.392;-4.472;2023-05-10T01:09:03;9.50;5.25;2.00
76238;PMS7003;65043;48.392;-4.472;2023-05-10T01:11:28;4.25;4.00;1.50
76238;PMS7003;65043;48.392;-4.472;2023-05-10T01:13:57;7.75;4.75;1.00
76238;PMS7003;65043;48.392;-4.472;2023-05-10T01:16:23;6.75;4.50;2.00
76238;PMS7003;65043;48.392;-4.472;2023-05-10T01:18:49;3.00;2.75;1.00
76238;PMS7003;65043;48.392;-4.472;2023-05-10T01:37:37;7.50;4.25;1.25
76238;PMS7003;65043;48.392;-4.472;2023-05-10T01:40:26;8.75;3.75;1.00
76238;PMS7003;65043;48.392;-4.472;2023-05-10T01:43:02;6.50;4.25;2.75
76238;PMS7003;65043;48.392;-4.472;2023-05-10T01:45:41;3.50;2.50;1.00
76238;PMS7003;65043;48.392;-4.472;2023-05-10T01:48:15;8.75;4.00;1.25
76238;PMS7003;65043;48.392;-4.472;2023-05-10T01:50:43;4.00;2.00;1.00
76238;PMS7003;65043;48.392;-4.472;2023-05-10T01:53:11;6.75;4.00;2.00
76238;PMS7003;65043;48.392;-4.472;2023-05-10T01:55:43;6.75;3.25;1.00
76238;PMS7003;65043;48.392;-4.472;2023-05-10T01:58:31;7.50;4.75;1.00
76238;PMS7003;65043;48.392;-4.472;2023-05-10T02:00:59;6.25;3.00;1.00
76238;PMS7003;65043;48.392;-4.472;2023-05-10T02:03:28;6.75;2.50;2.00
76238;PMS7003;65043;48.392;-4.472;2023-05-10T02:05:56;3.00;2.50;1.75
76238;PMS7003;65043;48.392;-4.472;2023-05-10T02:08:22;7.00;1.75;0.50
76238;PMS7003;65043;48.392;-4.472;2023-05-10T02:10:50;6.00;3.00;1.50
76238;PMS7003;65043;48.392;-4.472;2023-05-10T02:13:18;6.75;2.75;1.00
76238;PMS7003;65043;48.392;-4.472;2023-05-10T02:15:45;2.00;2.00;1.00
76238;PMS7003;65043;48.392;-4.472;2023-05-10T02:18:12;3.75;2.00;1.00
76238;PMS7003;65043;48.392;-4.472;2023-05-10T02:20:40;6.50;1.00;1.00
76238;PMS7003;65043;48.392;-4.472;2023-05-10T02:23:08;7.25;5.00;1.00
76238;PMS7003;65043;48.392;-4.472;2023-05-10T02:25:34;4.25;2.75;1.00
76238;PMS7003;65043;48.392;-4.472;2023-05-10T02:28:03;4.75;2.00;0.00
76238;PMS7003;65043;48.392;-4.472;2023-05-10T02:30:31;5.75;3.00;0.75
76238;PMS7003;65043;48.392;-4.472;2023-05-10T02:32:59;7.75;3.25;1.00
76238;PMS7003;65043;48.392;-4.472;2023-05-10T02:35:26;5.75;4.25;1.25
76238;PMS7003;65043;48.392;-4.472;2023-05-10T02:37:53;4.00;2.25;1.00
76238;PMS7003;65043;48.392;-4.472;2023-05-10T02:40:19;7.25;3.25;0.00
76238;PMS7003;65043;48.392;-4.472;2023-05-10T02:42:47;9.00;4.50;2.00
76238;PMS7003;65043;48.392;-4.472;2023-05-10T02:45:17;5.25;3.50;1.25
76238;PMS7003;65043;48.392;-4.472;2023-05-10T02:47:46;5.25;4.00;2.00
76238;PMS7003;65043;48.392;-4.472;2023-05-10T02:50:11;5.00;2.00;1.00
76238;PMS7003;65043;48.392;-4.472;2023-05-10T02:52:41;6.25;2.75;1.00
76238;PMS7003;65043;48.392;-4.472;2023-05-10T02:55:11;10.25;5.00;2.00
76238;PMS7003;65043;48.392;-4.472;2023-05-10T02:57:44;6.75;4.00;1.00
76238;PMS7003;65043;48.392;-4.472;2023-05-10T03:00:15;6.75;2.25;1.00
76238;PMS7003;65043;48.392;-4.472;2023-05-10T03:02:41;3.00;2.50;1.00
76238;PMS7003;65043;48.392;-4.472;2023-05-10T03:05:06;7.00;5.25;2.00
76238;PMS7003;65043;48.392;-4.472;2023-05-10T03:07:33;5.25;4.75;2.00
76238;PMS7003;65043;48.392;-4.472;2023-05-10T03:09:58;3.75;2.00;1.00
76238;PMS7003;65043;48.392;-4.472;2023-05-10T03:17:59;5.75;3.25;1.50
76238;PMS7003;65043;48.392;-4.472;2023-05-10T03:23:21;7.00;2.50;1.00
76238;PMS7003;65043;48.392;-4.472;2023-05-10T03:25:54;8.50;3.50;1.75
76238;PMS7003;65043;48.392;-4.472;2023-05-10T03:28:20;5.75;3.00;2.00
76238;PMS7003;65043;48.392;-4.472;2023-05-10T03:30:46;5.25;3.00;2.00
76238;PMS7003;65043;48.392;-4.472;2023-05-10T03:33:12;8.00;4.25;1.00
76238;PMS7003;65043;48.392;-4.472;2023-05-10T03:35:39;8.00;5.25;1.50
76238;PMS7003;65043;48.392;-4.472;2023-05-10T03:38:05;8.00;2.75;1.00
76238;PMS7003;65043;48.392;-4.472;2023-05-10T03:40:30;5.50;3.00;1.75
76238;PMS7003;65043;48.392;-4.472;2023-05-10T03:42:57;8.25;2.00;1.00
76238;PMS7003;65043;48.392;-4.472;2023-05-10T03:45:23;5.00;5.00;1.75
76238;PMS7003;65043;48.392;-4.472;2023-05-10T03:47:48;8.00;4.00;2.00
76238;PMS7003;65043;48.392;-4.472;2023-05-10T03:50:13;6.25;3.00;1.00
76238;PMS7003;65043;48.392;-4.472;2023-05-10T03:52:39;8.00;5.00;2.00
76238;PMS7003;65043;48.392;-4.472;2023-05-10T03:55:05;6.50;1.75;1.00
76238;PMS7003;65043;48.392;-4.472;2023-05-10T03:57:31;6.75;3.50;1.75
76238;PMS7003;65043;48.392;-4.472;2023-05-10T03:59:56;10.00;3.50;1.50
76238;PMS7003;65043;48.392;-4.472;2023-05-10T04:02:22;8.25;4.25;1.75
76238;PMS7003;65043;48.392;-4.472;2023-05-10T04:04:47;7.50;4.00;2.00
76238;PMS7003;65043;48.392;-4.472;2023-05-10T04:07:13;6.25;4.25;2.50
76238;PMS7003;65043;48.392;-4.472;2023-05-10T04:09:39;4.75;4.00;1.00
76238;PMS7003;65043;48.392;-4.472;2023-05-10T04:12:04;11.25;4.50;1.50
76238;PMS7003;65043;48.392;-4.472;2023-05-10T04:14:30;9.00;4.00;1.00
76238;PMS7003;65043;48.392;-4.472;2023-05-10T04:16:55;9.75;5.50;2.25
76238;PMS7003;65043;48.392;-4.472;2023-05-10T04:19:21;7.75;5.75;3.00
76238;PMS7003;65043;48.392;-4.472;2023-05-10T04:21:46;6.00;4.25;2.00
76238;PMS7003;65043;48.392;-4.472;2023-05-10T04:24:12;14.25;6.50;1.75
76238;PMS7003;65043;48.392;-4.472;2023-05-10T04:26:37;10.50;6.50;3.00
76238;PMS7003;65043;48.392;-4.472;2023-05-10T04:29:03;6.00;5.50;3.00
76238;PMS7003;65043;48.392;-4.472;2023-05-10T04:31:28;8.25;6.75;2.25
76238;PMS7003;65043;48.392;-4.472;2023-05-10T04:33:54;4.75;4.25;2.00
76238;PMS7003;65043;48.392;-4.472;2023-05-10T04:36:19;8.75;5.75;3.00
76238;PMS7003;65043;48.392;-4.472;2023-05-10T04:38:44;6.75;4.75;2.00
76238;PMS7003;65043;48.392;-4.472;2023-05-10T04:41:10;9.75;2.75;1.50
76238;PMS7003;65043;48.392;-4.472;2023-05-10T04:43:36;5.50;4.00;2.00
76238;PMS7003;65043;48.392;-4.472;2023-05-10T04:46:02;8.25;4.00;2.00
76238;PMS7003;65043;48.392;-4.472;2023-05-10T04:48:28;6.50;5.25;2.00
76238;PMS7003;65043;48.392;-4.472;2023-05-10T04:50:54;6.50;3.00;1.50
76238;PMS7003;65043;48.392;-4.472;2023-05-10T04:53:19;5.75;3.00;1.25
76238;PMS7003;65043;48.392;-4.472;2023-05-10T04:55:45;6.50;2.50;2.00
76238;PMS7003;65043;48.392;-4.472;2023-05-10T04:58:11;13.25;4.50;2.00
76238;PMS7003;65043;48.392;-4.472;2023-05-10T05:00:36;3.75;3.00;1.00
76238;PMS7003;65043;48.392;-4.472;2023-05-10T05:03:02;3.25;2.50;2.00
76238;PMS7003;65043;48.392;-4.472;2023-05-10T05:05:27;3.00;2.00;1.00
76238;PMS7003;65043;48.392;-4.472;2023-05-10T05:07:52;2.00;1.75;1.00
76238;PMS7003;65043;48.392;-4.472;2023-05-10T05:10:18;3.00;1.00;1.00
76238;PMS7003;65043;48.392;-4.472;2023-05-10T05:12:43;2.75;2.00;0.00
76238;PMS7003;65043;48.392;-4.472;2023-05-10T05:15:09;4.25;2.00;0.00
76238;PMS7003;65043;48.392;-4.472;2023-05-10T05:17:35;1.00;1.00;0.00
76238;PMS7003;65043;48.392;-4.472;2023-05-10T05:20:01;3.00;1.00;0.00
76238;PMS7003;65043;48.392;-4.472;2023-05-10T05:22:26;4.75;2.00;1.00
76238;PMS7003;65043;48.392;-4.472;2023-05-10T05:24:56;4.00;2.75;0.00
76238;PMS7003;65043;48.392;-4.472;2023-05-10T05:27:23;2.25;0.00;0.00
76238;PMS7003;65043;48.392;-4.472;2023-05-10T05:29:52;1.00;1.00;0.00
76238;PMS7003;65043;48.392;-4.472;2023-05-10T05:32:20;1.00;1.00;0.00
76238;PMS7003;65043;48.392;-4.472;2023-05-10T05:34:46;2.50;2.00;0.00
76238;PMS7003;65043;48.392;-4.472;2023-05-10T05:37:15;1.25;1.25;1.00
76238;PMS7003;65043;48.392;-4.472;2023-05-10T05:39:42;4.25;0.75;0.00
76238;PMS7003;65043;48.392;-4.472;2023-05-10T05:42:08;2.25;2.00;0.75
76238;PMS7003;65043;48.392;-4.472;2023-05-10T05:44:37;4.75;1.00;0.00
76238;PMS7003;65043;48.392;-4.472;2023-05-10T05:47:03;1.25;1.25;1.00
76238;PMS7003;65043;48.392;-4.472;2023-05-10T05:49:29;2.50;1.00;1.00
76238;PMS7003;65043;48.392;-4.472;2023-05-10T05:51:58;0.25;0.25;0.00
76238;PMS7003;65043;48.392;-4.472;2023-05-10T05:54:24;1.00;1.00;0.00
76238;PMS7003;65043;48.392;-4.472;2023-05-10T05:56:49;1.25;1.00;0.00
76238;PMS7003;65043;48.392;-4.472;2023-05-10T05:59:14;3.25;1.50;0.00
76238;PMS7003;65043;48.392;-4.472;2023-05-10T06:01:40;1.25;1.00;1.00
76238;PMS7003;65043;48.392;-4.472;2023-05-10T06:04:05;4.25;3.00;0.25
76238;PMS7003;65043;48.392;-4.472;2023-05-10T06:06:30;4.50;1.00;0.50
76238;PMS7003;65043;48.392;-4.472;2023-05-10T06:08:57;5.25;3.00;0.25
76238;PMS7003;65043;48.392;-4.472;2023-05-10T06:11:22;2.00;2.00;0.00
76238;PMS7003;65043;48.392;-4.472;2023-05-10T06:13:48;3.00;2.75;1.00
76238;PMS7003;65043;48.392;-4.472;2023-05-10T06:16:14;6.25;3.00;0.00
76238;PMS7003;65043;48.392;-4.472;2023-05-10T06:18:39;4.00;4.00;1.75
76238;PMS7003;65043;48.392;-4.472;2023-05-10T06:21:05;6.75;2.00;1.00
76238;PMS7003;65043;48.392;-4.472;2023-05-10T06:23:30;2.50;1.75;1.00
76238;PMS7003;65043;48.392;-4.472;2023-05-10T06:25:56;3.50;1.75;0.00
76238;PMS7003;65043;48.392;-4.472;2023-05-10T06:28:21;5.50;1.00;1.00
76238;PMS7003;65043;48.392;-4.472;2023-05-10T06:30:46;3.50;1.25;0.50
76238;PMS7003;65043;48.392;-4.472;2023-05-10T06:33:12;6.25;3.75;1.00
76238;PMS7003;65043;48.392;-4.472;2023-05-10T06:35:38;4.50;3.50;1.00
76238;PMS7003;65043;48.392;-4.472;2023-05-10T06:38:03;3.25;3.00;0.50
76238;PMS7003;65043;48.392;-4.472;2023-05-10T06:40:29;6.00;3.25;1.00
76238;PMS7003;65043;48.392;-4.472;2023-05-10T06:42:54;5.50;3.00;1.00
76238;PMS7003;65043;48.392;-4.472;2023-05-10T06:45:20;3.00;1.00;1.00
76238;PMS7003;65043;48.392;-4.472;2023-05-10T06:47:46;0.75;0.00;0.00
76238;PMS7003;65043;48.392;-4.472;2023-05-10T06:50:11;2.00;1.00;1.00
76238;PMS7003;65043;48.392;-4.472;2023-05-10T06:52:37;0.25;0.00;0.00
76238;PMS7003;65043;48.392;-4.472;2023-05-10T06:55:03;0.25;0.00;0.00
76238;PMS7003;65043;48.392;-4.472;2023-05-10T06:57:29;1.00;1.00;0.00
76238;PMS7003;65043;48.392;-4.472;2023-05-10T06:59:55;0.00;0.00;0.00
76238;PMS7003;65043;48.392;-4.472;2023-05-10T07:02:21;6.00;2.00;1.00
76238;PMS7003;65043;48.392;-4.472;2023-05-10T07:04:47;4.00;3.25;1.00
76238;PMS7003;65043;48.392;-4.472;2023-05-10T07:07:13;2.75;2.50;1.00
76238;PMS7003;65043;48.392;-4.472;2023-05-10T07:09:39;6.50;4.50;1.00
76238;PMS7003;65043;48.392;-4.472;2023-05-10T07:12:04;4.00;2.50;1.00
76238;PMS7003;65043;48.392;-4.472;2023-05-10T07:14:30;5.00;1.00;1.00
76238;PMS7003;65043;48.392;-4.472;2023-05-10T07:16:55;5.25;1.75;0.75
76238;PMS7003;65043;48.392;-4.472;2023-05-10T07:19:20;2.75;2.00;1.00
76238;PMS7003;65043;48.392;-4.472;2023-05-10T07:21:46;4.00;3.00;2.00
76238;PMS7003;65043;48.392;-4.472;2023-05-10T07:24:11;2.75;2.50;1.00
76238;PMS7003;65043;48.392;-4.472;2023-05-10T07:26:36;2.50;2.25;1.00
76238;PMS7003;65043;48.392;-4.472;2023-05-10T07:29:02;1.00;1.00;0.00
76238;PMS7003;65043;48.392;-4.472;2023-05-10T07:31:27;2.00;1.00;1.00
76238;PMS7003;65043;48.392;-4.472;2023-05-10T07:33:53;1.50;1.00;0.50
76238;PMS7003;65043;48.392;-4.472;2023-05-10T07:36:19;1.75;0.25;0.00
76238;PMS7003;65043;48.392;-4.472;2023-05-10T07:38:44;0.25;0.00;0.00
76238;PMS7003;65043;48.392;-4.472;2023-05-10T07:41:11;0.25;0.00;0.00
76238;PMS7003;65043;48.392;-4.472;2023-05-10T07:43:37;0.75;0.50;0.00
76238;PMS7003;65043;48.392;-4.472;2023-05-10T07:46:02;0.75;0.50;0.00
76238;PMS7003;65043;48.392;-4.472;2023-05-10T07:48:27;2.75;1.25;0.00
76238;PMS7003;65043;48.392;-4.472;2023-05-10T07:50:53;1.00;1.00;0.25
76238;PMS7003;65043;48.392;-4.472;2023-05-10T07:53:18;4.00;1.00;0.00
76238;PMS7003;65043;48.392;-4.472;2023-05-10T07:55:44;5.00;0.00;0.00
76238;PMS7003;65043;48.392;-4.472;2023-05-10T07:58:14;0.75;0.75;0.00
76238;PMS7003;65043;48.392;-4.472;2023-05-10T08:00:40;2.50;1.25;0.75
76238;PMS7003;65043;48.392;-4.472;2023-05-10T08:03:06;1.00;1.00;1.00
76238;PMS7003;65043;48.392;-4.472;2023-05-10T08:05:31;3.50;3.50;2.00
76238;PMS7003;65043;48.392;-4.472;2023-05-10T08:07:56;3.00;3.00;1.50
76238;PMS7003;65043;48.392;-4.472;2023-05-10T08:10:22;2.25;2.00;1.00
76238;PMS7003;65043;48.392;-4.472;2023-05-10T08:12:49;4.75;3.00;1.00
76238;PMS7003;65043;48.392;-4.472;2023-05-10T08:15:14;3.25;2.00;1.00
76238;PMS7003;65043;48.392;-4.472;2023-05-10T08:17:40;5.00;2.00;1.00
76238;PMS7003;65043;48.392;-4.472;2023-05-10T08:20:06;5.75;3.25;2.00
76238;PMS7003;65043;48.392;-4.472;2023-05-10T08:22:32;1.50;1.50;1.00
76238;PMS7003;65043;48.392;-4.472;2023-05-10T08:24:58;3.25;2.00;1.00
76238;PMS7003;65043;48.392;-4.472;2023-05-10T08:27:23;3.00;2.00;0.25
76238;PMS7003;65043;48.392;-4.472;2023-05-10T08:29:48;3.25;2.00;0.25
76238;PMS7003;65043;48.392;-4.472;2023-05-10T08:32:14;4.00;3.00;1.00
76238;PMS7003;65043;48.392;-4.472;2023-05-10T08:34:39;4.75;2.75;2.00
76238;PMS7003;65043;48.392;-4.472;2023-05-10T08:37:05;2.25;2.25;1.00
76238;PMS7003;65043;48.392;-4.472;2023-05-10T08:39:33;2.25;1.25;0.25
76238;PMS7003;65043;48.392;-4.472;2023-05-10T08:42:00;1.50;1.00;0.00
76238;PMS7003;65043;48.392;-4.472;2023-05-10T08:44:27;6.00;1.00;0.00
76238;PMS7003;65043;48.392;-4.472;2023-05-10T08:46:53;1.00;1.00;0.00
76238;PMS7003;65043;48.392;-4.472;2023-05-10T08:49:22;2.25;2.00;1.00
76238;PMS7003;65043;48.392;-4.472;2023-05-10T08:51:51;1.75;1.75;1.25
76238;PMS7003;65043;48.392;-4.472;2023-05-10T08:54:21;4.50;2.00;0.00
76238;PMS7003;65043;48.392;-4.472;2023-05-10T08:56:46;3.50;2.00;1.50
76238;PMS7003;65043;48.392;-4.472;2023-05-10T08:59:12;3.50;2.25;1.00
76238;PMS7003;65043;48.392;-4.472;2023-05-10T09:01:38;5.50;4.00;2.00
76238;PMS7003;65043;48.392;-4.472;2023-05-10T09:04:05;7.75;5.25;3.25
76238;PMS7003;65043;48.392;-4.472;2023-05-10T09:06:30;4.25;2.00;1.25
76238;PMS7003;65043;48.392;-4.472;2023-05-10T09:08:57;3.00;2.00;1.00
76238;PMS7003;65043;48.392;-4.472;2023-05-10T09:11:23;7.00;2.00;0.25
76238;PMS7003;65043;48.392;-4.472;2023-05-10T09:13:49;3.00;1.75;0.50
76238;PMS7003;65043;48.392;-4.472;2023-05-10T09:16:17;1.00;1.00;0.25
76238;PMS7003;65043;48.392;-4.472;2023-05-10T09:18:42;5.25;2.00;0.00
76238;PMS7003;65043;48.392;-4.472;2023-05-10T09:21:08;1.00;1.00;0.25
76238;PMS7003;65043;48.392;-4.472;2023-05-10T09:23:35;3.00;1.25;0.75
76238;PMS7003;65043;48.392;-4.472;2023-05-10T09:26:06;3.00;3.00;1.50
76238;PMS7003;65043;48.392;-4.472;2023-05-10T09:28:33;4.75;1.50;0.50
76238;PMS7003;65043;48.392;-4.472;2023-05-10T09:31:00;3.75;1.50;0.50
76238;PMS7003;65043;48.392;-4.472;2023-05-10T09:33:25;1.50;1.50;0.50
76238;PMS7003;65043;48.392;-4.472;2023-05-10T09:35:54;2.50;0.50;0.00
76238;PMS7003;65043;48.392;-4.472;2023-05-10T09:38:19;1.25;0.50;0.00
76238;PMS7003;65043;48.392;-4.472;2023-05-10T09:40:50;2.50;0.50;0.00
76238;PMS7003;65043;48.392;-4.472;2023-05-10T09:43:20;4.00;0.50;0.50
76238;PMS7003;65043;48.392;-4.472;2023-05-10T09:45:45;3.75;1.50;0.00
76238;PMS7003;65043;48.392;-4.472;2023-05-10T09:48:14;2.75;1.50;0.50
76238;PMS7003;65043;48.392;-4.472;2023-05-10T09:50:40;6.25;1.00;0.50
76238;PMS7003;65043;48.392;-4.472;2023-05-10T09:53:06;4.00;0.50;0.00
76238;PMS7003;65043;48.392;-4.472;2023-05-10T09:58:04;1.00;0.50;0.50
76238;PMS7003;65043;48.392;-4.472;2023-05-10T10:00:35;2.75;2.75;0.75
76238;PMS7003;65043;48.392;-4.472;2023-05-10T10:03:02;4.00;2.75;0.75
76238;PMS7003;65043;48.392;-4.472;2023-05-10T10:05:31;0.50;0.50;0.00
76238;PMS7003;65043;48.392;-4.472;2023-05-10T10:07:58;1.75;1.00;0.25
76238;PMS7003;65043;48.392;-4.472;2023-05-10T10:10:25;0.50;0.50;0.50
76238;PMS7003;65043;48.392;-4.472;2023-05-10T10:12:52;0.25;0.00;0.00
76238;PMS7003;65043;48.392;-4.472;2023-05-10T10:15:18;0.25;0.25;0.00
76238;PMS7003;65043;48.392;-4.472;2023-05-10T10:17:43;1.50;1.50;0.50
76238;PMS7003;65043;48.392;-4.472;2023-05-10T10:20:09;4.00;3.00;1.75
76238;PMS7003;65043;48.392;-4.472;2023-05-10T10:22:36;4.00;3.25;1.25
76238;PMS7003;65043;48.392;-4.472;2023-05-10T10:25:02;2.75;2.75;1.25
76238;PMS7003;65043;48.392;-4.472;2023-05-10T10:33:01;2.50;1.25;0.00
76238;PMS7003;65043;48.392;-4.472;2023-05-10T10:35:44;0.25;0.25;0.00
76238;PMS7003;65043;48.392;-4.472;2023-05-10T10:38:11;2.50;1.25;0.50
76238;PMS7003;65043;48.392;-4.472;2023-05-10T10:40:37;2.00;1.00;1.00
76238;PMS7003;65043;48.392;-4.472;2023-05-10T10:48:40;5.00;1.75;0.75
76238;PMS7003;65043;48.392;-4.472;2023-05-10T10:51:06;2.75;2.75;2.00
76238;PMS7003;65043;48.392;-4.472;2023-05-10T10:53:32;2.00;2.00;0.75
76238;PMS7003;65043;48.392;-4.472;2023-05-10T10:56:10;0.75;0.00;0.00
76238;PMS7003;65043;48.392;-4.472;2023-05-10T10:58:38;1.75;0.75;0.00
76238;PMS7003;65043;48.392;-4.472;2023-05-10T11:01:17;1.00;1.00;0.50
76238;PMS7003;65043;48.392;-4.472;2023-05-10T11:08:57;6.50;5.00;1.50
76238;PMS7003;65043;48.392;-4.472;2023-05-10T11:11:22;2.00;2.00;0.50
76238;PMS7003;65043;48.392;-4.472;2023-05-10T11:13:48;3.75;1.00;0.00
76238;PMS7003;65043;48.392;-4.472;2023-05-10T11:16:15;6.00;2.00;0.75
76238;PMS7003;65043;48.392;-4.472;2023-05-10T11:19:19;2.00;2.00;1.00
76238;PMS7003;65043;48.392;-4.472;2023-05-10T11:21:45;2.75;1.75;0.50
76238;PMS7003;65043;48.392;-4.472;2023-05-10T11:24:14;1.75;0.75;0.00
76238;PMS7003;65043;48.392;-4.472;2023-05-10T11:26:41;2.75;2.25;1.25
76238;PMS7003;65043;48.392;-4.472;2023-05-10T11:29:07;5.50;5.50;1.50
76238;PMS7003;65043;48.392;-4.472;2023-05-10T11:31:33;1.75;0.50;0.50
76238;PMS7003;65043;48.392;-4.472;2023-05-10T11:33:59;3.00;1.00;0.00
76238;PMS7003;65043;48.392;-4.472;2023-05-10T11:38:54;4.50;0.00;0.00
76238;PMS7003;65043;48.392;-4.472;2023-05-10T11:41:21;6.00;1.25;0.00
76238;PMS7003;65043;48.392;-4.472;2023-05-10T11:43:55;0.25;0.00;0.00
76238;PMS7003;65043;48.392;-4.472;2023-05-10T11:46:26;1.50;0.50;0.00
76238;PMS7003;65043;48.392;-4.472;2023-05-10T11:48:55;0.75;0.75;0.25
76238;PMS7003;65043;48.392;-4.472;2023-05-10T11:51:25;2.00;0.00;0.00
76238;PMS7003;65043;48.392;-4.472;2023-05-10T11:53:53;1.50;0.00;0.00
76238;PMS7003;65043;48.392;-4.472;2023-05-10T11:56:20;0.75;0.00;0.00
76238;PMS7003;65043;48.392;-4.472;2023-05-10T11:58:51;1.00;0.75;0.00
76238;PMS7003;65043;48.392;-4.472;2023-05-10T12:01:18;2.00;0.50;0.00
76238;PMS7003;65043;48.392;-4.472;2023-05-10T12:03:44;4.25;0.00;0.00
76238;PMS7003;65043;48.392;-4.472;2023-05-10T12:06:10;1.75;0.75;0.00
76238;PMS7003;65043;48.392;-4.472;2023-05-10T12:08:35;1.75;0.75;0.00
76238;PMS7003;65043;48.392;-4.472;2023-05-10T12:11:05;1.75;0.00;0.00
76238;PMS7003;65043;48.392;-4.472;2023-05-10T12:13:31;2.75;1.50;0.00
76238;PMS7003;65043;48.392;-4.472;2023-05-10T12:15:57;3.00;0.75;0.00
76238;PMS7003;65043;48.392;-4.472;2023-05-10T12:18:24;0.75;0.50;0.00
76238;PMS7003;65043;48.392;-4.472;2023-05-10T12:20:51;0.25;0.25;0.00
76238;PMS7003;65043;48.392;-4.472;2023-05-10T12:23:20;0.50;0.00;0.00
76238;PMS7003;65043;48.392;-4.472;2023-05-10T12:25:46;0.75;0.75;0.00
76238;PMS7003;65043;48.392;-4.472;2023-05-10T12:28:11;1.25;1.25;0.25
76238;PMS7003;65043;48.392;-4.472;2023-05-10T12:30:37;3.25;1.00;0.00
76238;PMS7003;65043;48.392;-4.472;2023-05-10T12:33:10;1.75;0.25;0.00
76238;PMS7003;65043;48.392;-4.472;2023-05-10T12:35:48;0.00;0.00;0.00
76238;PMS7003;65043;48.392;-4.472;2023-05-10T12:40:55;0.25;0.00;0.00
76238;PMS7003;65043;48.392;-4.472;2023-05-10T12:43:21;0.75;0.00;0.00
76238;PMS7003;65043;48.392;-4.472;2023-05-10T12:45:47;0.25;0.00;0.00
76238;PMS7003;65043;48.392;-4.472;2023-05-10T12:48:13;3.00;1.50;0.75
76238;PMS7003;65043;48.392;-4.472;2023-05-10T12:50:40;0.00;0.00;0.00
76238;PMS7003;65043;48.392;-4.472;2023-05-10T12:53:05;0.00;0.00;0.00
76238;PMS7003;65043;48.392;-4.472;2023-05-10T12:55:31;1.50;0.00;0.00
76238;PMS7003;65043;48.392;-4.472;2023-05-10T12:57:56;1.75;1.00;0.00
76238;PMS7003;65043;48.392;-4.472;2023-05-10T13:00:22;1.00;0.50;0.00
76238;PMS7003;65043;48.392;-4.472;2023-05-10T13:02:47;4.50;1.50;0.00
76238;PMS7003;65043;48.392;-4.472;2023-05-10T13:05:13;0.00;0.00;0.00
76238;PMS7003;65043;48.392;-4.472;2023-05-10T13:07:38;0.75;0.75;0.00
76238;PMS7003;65043;48.392;-4.472;2023-05-10T13:10:04;0.75;0.00;0.00
76238;PMS7003;65043;48.392;-4.472;2023-05-10T13:12:31;5.00;0.75;0.25
76238;PMS7003;65043;48.392;-4.472;2023-05-10T13:14:56;0.75;0.75;0.00
76238;PMS7003;65043;48.392;-4.472;2023-05-10T13:17:22;1.50;0.75;0.00
76238;PMS7003;65043;48.392;-4.472;2023-05-10T13:19:47;0.00;0.00;0.00
76238;PMS7003;65043;48.392;-4.472;2023-05-10T13:22:13;1.25;0.00;0.00
76238;PMS7003;65043;48.392;-4.472;2023-05-10T13:24:38;0.75;0.25;0.00
76238;PMS7003;65043;48.392;-4.472;2023-05-10T13:27:04;0.50;0.25;0.00
76238;PMS7003;65043;48.392;-4.472;2023-05-10T13:29:29;1.00;1.00;0.00
76238;PMS7003;65043;48.392;-4.472;2023-05-10T13:31:55;1.75;0.75;0.00
76238;PMS7003;65043;48.392;-4.472;2023-05-10T13:34:21;0.00;0.00;0.00
76238;PMS7003;65043;48.392;-4.472;2023-05-10T13:36:46;0.25;0.25;0.00
76238;PMS7003;65043;48.392;-4.472;2023-05-10T13:39:13;0.50;0.50;0.00
76238;PMS7003;65043;48.392;-4.472;2023-05-10T13:41:38;1.25;0.75;0.00
76238;PMS7003;65043;48.392;-4.472;2023-05-10T13:44:03;2.50;0.00;0.00
76238;PMS7003;65043;48.392;-4.472;2023-05-10T13:46:29;1.00;0.00;0.00
76238;PMS7003;65043;48.392;-4.472;2023-05-10T13:48:55;2.00;0.75;0.00
76238;PMS7003;65043;48.392;-4.472;2023-05-10T13:51:21;1.25;0.00;0.00
76238;PMS7003;65043;48.392;-4.472;2023-05-10T13:53:47;0.50;0.50;0.00
76238;PMS7003;65043;48.392;-4.472;2023-05-10T13:56:12;0.25;0.25;0.00
76238;PMS7003;65043;48.392;-4.472;2023-05-10T13:58:40;1.75;0.75;0.00
76238;PMS7003;65043;48.392;-4.472;2023-05-10T14:01:06;1.00;1.00;0.00
76238;PMS7003;65043;48.392;-4.472;2023-05-10T14:03:31;1.00;0.25;0.00
76238;PMS7003;65043;48.392;-4.472;2023-05-10T14:05:57;0.75;0.25;0.00
76238;PMS7003;65043;48.392;-4.472;2023-05-10T14:08:23;0.50;0.00;0.00
76238;PMS7003;65043;48.392;-4.472;2023-05-10T14:10:48;0.00;0.00;0.00
76238;PMS7003;65043;48.392;-4.472;2023-05-10T14:13:14;0.75;0.00;0.00
76238;PMS7003;65043;48.392;-4.472;2023-05-10T14:15:40;1.25;0.00;0.00
76238;PMS7003;65043;48.392;-4.472;2023-05-10T14:18:06;0.00;0.00;0.00
76238;PMS7003;65043;48.392;-4.472;2023-05-10T14:20:31;1.75;1.00;0.00
76238;PMS7003;65043;48.392;-4.472;2023-05-10T14:22:58;0.00;0.00;0.00
76238;PMS7003;65043;48.392;-4.472;2023-05-10T14:25:24;1.00;0.00;0.00
76238;PMS7003;65043;48.392;-4.472;2023-05-10T14:27:49;1.50;0.25;0.00
76238;PMS7003;65043;48.392;-4.472;2023-05-10T14:30:15;1.00;0.25;0.00
76238;PMS7003;65043;48.392;-4.472;2023-05-10T14:32:41;0.00;0.00;0.00
76238;PMS7003;65043;48.392;-4.472;2023-05-10T14:35:06;1.00;0.00;0.00
76238;PMS7003;65043;48.392;-4.472;2023-05-10T14:37:32;2.00;0.00;0.00
76238;PMS7003;65043;48.392;-4.472;2023-05-10T14:39:58;0.25;0.25;0.00
76238;PMS7003;65043;48.392;-4.472;2023-05-10T14:42:23;38.25;30.75;20.50
76238;PMS7003;65043;48.392;-4.472;2023-05-10T14:44:48;95.75;76.75;42.00
76238;PMS7003;65043;48.392;-4.472;2023-05-10T14:47:14;40.25;34.50;22.00
76238;PMS7003;65043;48.392;-4.472;2023-05-10T14:49:39;75.00;58.00;34.50
76238;PMS7003;65043;48.392;-4.472;2023-05-10T14:52:05;45.75;38.75;24.00
76238;PMS7003;65043;48.392;-4.472;2023-05-10T14:54:32;7.25;5.00;3.50